createdAt,value
2019-03-02T00:00:23.662Z,34.65
2019-03-02T00:02:27.490Z,35.75
2019-03-02T00:04:31.631Z,38.98
2019-03-02T00:06:36.583Z,35.88
2019-03-02T00:08:40.527Z,34.48
2019-03-02T00:10:45.783Z,33.70
2019-03-02T00:12:50.105Z,37.00
2019-03-02T00:14:55.016Z,37.58
2019-03-02T00:16:59.253Z,35.58
2019-03-02T00:19:06.820Z,36.63
2019-03-02T00:21:09.427Z,35.95
2019-03-02T00:23:15.814Z,39.33
2019-03-02T00:25:19.187Z,37.03
2019-03-02T00:27:23.392Z,36.05
2019-03-02T00:29:27.518Z,33.92
2019-03-02T00:31:33.243Z,38.33
2019-03-02T00:33:37.191Z,38.02
2019-03-02T00:35:43.659Z,35.98
2019-03-02T00:37:47.335Z,34.80
2019-03-02T00:39:54.565Z,37.88
2019-03-02T00:41:57.076Z,37.93
2019-03-02T00:44:03.875Z,34.88
2019-03-02T00:46:07.139Z,35.15
2019-03-02T00:48:12.401Z,32.38
2019-03-02T00:50:16.603Z,34.03
2019-03-02T00:52:23.418Z,35.68
2019-03-02T00:54:26.359Z,31.50
2019-03-02T00:56:30.181Z,31.27
2019-03-02T00:58:34.353Z,33.95
2019-03-02T01:00:38.229Z,33.20
2019-03-02T01:02:42.383Z,34.65
2019-03-02T01:04:46.604Z,34.48
2019-03-02T01:06:50.917Z,31.07
2019-03-02T01:08:58.892Z,32.73
2019-03-02T01:11:02.902Z,34.67
2019-03-02T01:13:06.807Z,34.80
2019-03-02T01:15:13.624Z,32.65
2019-03-02T01:17:17.905Z,31.80
2019-03-02T01:19:22.009Z,29.15
2019-03-02T01:21:26.217Z,31.77
2019-03-02T01:23:30.457Z,29.63
2019-03-02T01:25:35.057Z,32.38
2019-03-02T01:27:39.264Z,30.25
2019-03-02T01:29:43.385Z,28.52
2019-03-02T01:31:47.503Z,34.83
2019-03-02T01:33:51.701Z,28.73
2019-03-02T01:35:56.910Z,27.15
2019-03-02T01:38:00.907Z,30.68
2019-03-02T01:40:09.567Z,30.05
2019-03-02T01:42:13.403Z,29.27
2019-03-02T01:44:17.635Z,30.92
2019-03-02T01:46:21.795Z,29.00
2019-03-02T01:48:26.642Z,30.72
2019-03-02T01:50:32.067Z,26.42
2019-03-02T01:52:35.898Z,30.08
2019-03-02T01:54:40.086Z,28.42
2019-03-02T01:56:43.909Z,36.20
2019-03-02T01:58:48.100Z,28.95
2019-03-02T02:00:52.307Z,27.35
2019-03-02T02:02:56.431Z,23.32
2019-03-02T02:05:00.637Z,29.90
2019-03-02T02:07:04.554Z,29.18
2019-03-02T02:09:08.526Z,27.02
2019-03-02T02:11:14.641Z,31.97
2019-03-02T02:13:18.361Z,30.92
2019-03-02T02:15:25.818Z,24.92
2019-03-02T02:17:30.307Z,28.57
2019-03-02T02:19:34.791Z,32.73
2019-03-02T02:21:40.378Z,32.08
2019-03-02T02:23:45.838Z,34.13
2019-03-02T02:25:50.133Z,31.52
2019-03-02T02:27:54.880Z,38.65
2019-03-02T02:29:59.919Z,32.98
2019-03-02T02:32:03.721Z,37.63
2019-03-02T02:34:07.542Z,40.63
2019-03-02T02:36:14.200Z,39.27
2019-03-02T02:38:17.696Z,39.18
2019-03-02T02:40:21.975Z,39.90
2019-03-02T02:42:26.181Z,38.05
2019-03-02T02:44:33.059Z,47.17
2019-03-02T02:46:36.248Z,39.83
2019-03-02T02:48:40.371Z,49.70
2019-03-02T02:50:44.576Z,47.23
2019-03-02T02:52:48.782Z,50.63
2019-03-02T02:54:57.613Z,47.35
2019-03-02T02:57:00.467Z,54.18
2019-03-02T02:59:04.624Z,57.60
2019-03-02T03:01:08.465Z,55.30
2019-03-02T03:03:16.068Z,54.70
2019-03-02T03:05:19.190Z,47.95
2019-03-02T03:07:23.407Z,52.88
2019-03-02T03:09:45.415Z,55.52
2019-03-02T03:11:46.551Z,56.37
2019-03-02T03:13:50.678Z,56.33
2019-03-02T03:15:54.498Z,64.30
2019-03-02T03:17:58.696Z,61.05
2019-03-02T03:20:09.816Z,59.73
2019-03-02T03:22:09.176Z,56.48
2019-03-02T03:24:15.428Z,60.65
2019-03-02T03:26:19.541Z,66.60
2019-03-02T03:28:25.959Z,70.92
2019-03-02T03:30:35.746Z,68.80
2019-03-02T03:32:35.208Z,70.17
2019-03-02T03:34:39.352Z,64.50
2019-03-02T03:36:43.578Z,64.53
2019-03-02T03:38:47.417Z,77.05
2019-03-02T03:40:51.590Z,73.12
2019-03-02T03:43:02.314Z,79.25
2019-03-02T03:45:04.398Z,76.10
2019-03-02T03:47:07.095Z,74.62
2019-03-02T03:49:11.315Z,80.40
2019-03-02T03:51:15.162Z,76.67
2019-03-02T03:53:21.783Z,82.02
2019-03-02T03:55:27.376Z,79.58
2019-03-02T03:57:30.716Z,76.25
2019-03-02T03:59:34.547Z,72.92
2019-03-02T04:01:38.737Z,81.05
2019-03-02T04:03:47.190Z,89.50
2019-03-02T04:05:50.744Z,85.45
2019-03-02T04:07:54.945Z,85.85
2019-03-02T04:09:59.068Z,82.62
2019-03-02T04:12:03.275Z,94.13
2019-03-02T04:14:07.469Z,91.00
2019-03-02T04:16:16.300Z,95.72
2019-03-02T04:18:57.244Z,79.35
2019-03-02T04:21:00.570Z,83.85
2019-03-02T04:23:07.738Z,76.97
2019-03-02T04:25:12.945Z,81.82
2019-03-02T04:27:17.829Z,81.78
2019-03-02T04:29:22.035Z,80.60
2019-03-02T04:31:26.358Z,81.97
2019-03-02T04:33:30.557Z,89.58
2019-03-02T04:35:35.198Z,87.22
2019-03-02T04:37:39.487Z,83.62
2019-03-02T04:39:46.467Z,85.30
2019-03-02T04:41:49.658Z,93.75
2019-03-02T04:43:53.998Z,88.20
2019-03-02T04:45:58.993Z,86.35
2019-03-02T04:48:03.533Z,96.12
2019-03-02T04:50:09.260Z,84.60
2019-03-02T04:52:14.579Z,84.45
2019-03-02T04:54:18.832Z,100.40
2019-03-02T04:56:25.202Z,97.33
2019-03-02T04:58:29.406Z,89.58
2019-03-02T05:00:33.616Z,106.80
2019-03-02T05:02:37.467Z,88.27
2019-03-02T05:04:41.643Z,92.15
2019-03-02T05:06:45.847Z,101.18
2019-03-02T05:08:49.700Z,99.15
2019-03-02T05:10:55.902Z,110.05
2019-03-02T05:13:00.034Z,100.12
2019-03-02T05:15:04.970Z,99.05
2019-03-02T05:17:09.057Z,103.53
2019-03-02T05:19:13.253Z,88.40
2019-03-02T05:21:17.076Z,91.28
2019-03-02T05:23:21.296Z,100.10
2019-03-02T05:25:25.504Z,96.50
2019-03-02T05:27:32.027Z,94.10
2019-03-02T05:29:35.642Z,97.00
2019-03-02T05:31:41.015Z,84.65
2019-03-02T05:33:45.020Z,91.78
2019-03-02T05:35:50.948Z,100.07
2019-03-02T05:37:55.082Z,92.90
2019-03-02T05:39:59.288Z,107.22
2019-03-02T05:42:03.490Z,103.25
2019-03-02T05:44:07.312Z,95.75
2019-03-02T05:46:11.513Z,108.50
2019-03-02T05:48:16.034Z,104.25
2019-03-02T05:50:26.589Z,94.95
2019-03-02T05:52:29.667Z,102.80
2019-03-02T05:54:38.621Z,99.28
2019-03-02T05:56:39.848Z,102.80
2019-03-02T05:58:44.054Z,107.05
2019-03-02T06:00:48.259Z,97.15
2019-03-02T06:02:52.481Z,93.15
2019-03-02T06:04:56.989Z,89.00
2019-03-02T06:07:02.027Z,95.28
2019-03-02T06:09:13.724Z,99.20
2019-03-02T06:11:15.072Z,89.47
2019-03-02T06:13:19.023Z,95.42
2019-03-02T06:15:23.184Z,93.07
2019-03-02T06:17:29.822Z,109.52
2019-03-02T06:19:34.887Z,102.47
2019-03-02T06:21:38.988Z,100.40
2019-03-02T06:23:43.124Z,102.85
2019-03-02T06:25:47.329Z,100.02
2019-03-02T06:27:51.236Z,96.55
2019-03-02T06:29:55.054Z,97.90
2019-03-02T06:31:59.248Z,108.60
2019-03-02T06:34:03.458Z,98.82
2019-03-02T06:36:08.657Z,102.62
2019-03-02T06:38:13.514Z,97.37
2019-03-02T06:40:20.155Z,116.08
2019-03-02T06:42:23.482Z,102.67
2019-03-02T06:44:30.850Z,106.83
2019-03-02T06:46:33.258Z,105.92
2019-03-02T06:48:37.434Z,103.20
2019-03-02T06:50:41.664Z,99.70
2019-03-02T06:52:45.884Z,100.00
2019-03-02T06:54:50.083Z,93.15
2019-03-02T06:56:57.697Z,102.05
2019-03-02T06:59:00.732Z,98.22
2019-03-02T07:01:05.993Z,102.15
2019-03-02T07:03:11.134Z,97.08
2019-03-02T07:05:15.766Z,99.65
2019-03-02T07:07:21.804Z,90.38
2019-03-02T07:09:25.708Z,101.50
2019-03-02T07:11:33.625Z,89.80
2019-03-02T07:13:36.293Z,94.90
2019-03-02T07:15:43.655Z,100.53
2019-03-02T07:17:54.029Z,87.95
2019-03-02T07:19:59.494Z,94.60
2019-03-02T07:22:03.770Z,88.22
2019-03-02T07:24:07.618Z,99.72
2019-03-02T07:26:11.803Z,104.72
2019-03-02T07:28:15.628Z,97.88
2019-03-02T07:30:19.920Z,99.32
2019-03-02T07:32:24.056Z,102.22
2019-03-02T07:34:28.255Z,96.50
2019-03-02T07:36:34.039Z,88.20
2019-03-02T07:38:38.513Z,94.60
2019-03-02T07:40:45.456Z,91.70
2019-03-02T07:42:48.782Z,88.40
2019-03-02T07:44:54.938Z,96.28
2019-03-02T07:46:58.483Z,102.22
2019-03-02T07:49:02.650Z,109.60
2019-03-02T07:51:06.759Z,100.02
2019-03-02T07:53:11.590Z,104.60
2019-03-02T07:55:19.119Z,98.65
2019-03-02T07:57:21.859Z,93.40
2019-03-02T07:59:26.515Z,97.15
2019-03-02T08:01:31.615Z,94.77
2019-03-02T08:03:35.818Z,99.47
2019-03-02T08:05:39.694Z,95.87
2019-03-02T08:07:43.942Z,95.97
2019-03-02T08:09:48.177Z,101.42
2019-03-02T08:11:52.360Z,89.30
2019-03-02T08:13:56.491Z,93.17
2019-03-02T08:16:03.225Z,97.40
2019-03-02T08:18:06.645Z,89.72
2019-03-02T08:20:13.406Z,93.22
2019-03-02T08:22:17.259Z,103.05
2019-03-02T08:24:21.086Z,108.37
2019-03-02T08:26:25.244Z,99.42
2019-03-02T08:28:29.098Z,102.07
2019-03-02T08:30:33.587Z,104.50
2019-03-02T08:32:38.087Z,108.15
2019-03-02T08:34:42.845Z,93.87
2019-03-02T08:36:50.258Z,96.50
2019-03-02T08:38:54.004Z,97.30
2019-03-02T08:41:00.343Z,89.55
2019-03-02T08:43:03.648Z,96.97
2019-03-02T08:45:11.209Z,99.47
2019-03-02T08:47:15.378Z,93.25
2019-03-02T08:49:19.579Z,107.30
2019-03-02T08:51:23.774Z,100.92
2019-03-02T08:53:27.607Z,99.97
2019-03-02T08:55:33.592Z,98.50
2019-03-02T08:57:37.745Z,103.67
2019-03-02T08:59:41.859Z,93.47
2019-03-02T09:01:46.069Z,91.45
2019-03-02T09:03:50.285Z,100.78
2019-03-02T09:05:55.556Z,95.50
2019-03-02T09:07:59.834Z,100.12
2019-03-02T09:10:05.083Z,109.85
2019-03-02T09:12:09.283Z,96.80
2019-03-02T09:14:13.598Z,93.40
2019-03-02T09:16:17.808Z,87.42
2019-03-02T09:18:23.547Z,99.00
2019-03-02T09:20:27.766Z,98.17
2019-03-02T09:22:31.979Z,100.75
2019-03-02T09:24:36.107Z,97.72
2019-03-02T09:26:40.309Z,107.78
2019-03-02T09:28:44.506Z,95.72
2019-03-02T09:30:48.369Z,101.42
2019-03-02T09:32:54.113Z,95.22
2019-03-02T09:35:00.688Z,104.05
2019-03-02T09:37:07.003Z,101.05
2019-03-02T09:39:10.799Z,109.72
2019-03-02T09:41:15.027Z,102.58
2019-03-02T09:43:18.853Z,101.27
2019-03-02T09:45:23.249Z,109.35
2019-03-02T09:47:27.444Z,104.87
2019-03-02T09:49:33.850Z,113.22
2019-03-02T09:51:37.125Z,100.92
2019-03-02T09:53:41.328Z,105.60
2019-03-02T09:55:47.088Z,118.28
2019-03-02T09:57:50.909Z,95.10
2019-03-02T09:59:54.761Z,100.25
2019-03-02T10:01:58.987Z,91.67
2019-03-02T10:04:06.007Z,92.70
2019-03-02T10:06:08.660Z,93.80
2019-03-02T10:08:13.259Z,87.00
2019-03-02T10:10:19.023Z,84.87
2019-03-02T10:12:23.220Z,89.05
2019-03-02T10:14:27.578Z,85.65
2019-03-02T10:16:31.744Z,83.95
2019-03-02T10:18:35.990Z,85.75
2019-03-02T10:20:42.622Z,74.12
2019-03-02T10:22:46.055Z,83.33
2019-03-02T10:24:53.239Z,76.42
2019-03-02T10:26:56.194Z,78.37
2019-03-02T10:29:01.667Z,85.17
2019-03-02T10:31:06.118Z,75.75
2019-03-02T10:33:10.977Z,93.10
2019-03-02T10:35:17.143Z,75.83
2019-03-02T10:37:21.554Z,77.62
2019-03-02T10:39:29.132Z,68.97
2019-03-02T10:41:31.319Z,71.50
2019-03-02T10:43:35.526Z,68.60
2019-03-02T10:45:40.837Z,66.42
2019-03-02T10:47:45.099Z,64.05
2019-03-02T10:49:49.346Z,63.45
2019-03-02T10:51:53.496Z,58.78
2019-03-02T10:53:59.561Z,63.73
2019-03-02T10:56:02.895Z,60.98
2019-03-02T10:58:06.773Z,53.13
2019-03-02T11:00:17.835Z,57.20
2019-03-02T11:02:21.737Z,55.03
2019-03-02T11:04:26.900Z,57.20
2019-03-02T11:06:33.093Z,54.40
2019-03-02T11:08:58.025Z,46.03
2019-03-02T11:11:18.536Z,52.60
2019-03-02T11:13:26.830Z,47.60
2019-03-02T11:15:43.534Z,43.43
2019-03-02T11:17:58.819Z,51.93
2019-03-02T11:20:04.354Z,53.30
2019-03-02T11:22:10.989Z,46.03
2019-03-02T11:24:34.752Z,51.73
2019-03-02T11:26:51.752Z,47.80
2019-03-02T11:28:57.354Z,48.57
2019-03-02T11:31:11.906Z,48.17
2019-03-02T11:33:23.107Z,46.97
2019-03-02T11:35:43.366Z,54.47
2019-03-02T11:38:06.712Z,51.87
2019-03-02T11:40:17.794Z,49.00
2019-03-02T11:42:23.368Z,48.43
2019-03-02T11:44:34.247Z,41.60
2019-03-02T11:46:39.769Z,39.70
2019-03-02T11:48:56.754Z,40.17
2019-03-02T11:51:03.842Z,42.37
2019-03-02T11:53:15.639Z,37.67
2019-03-02T11:55:22.815Z,34.37
2019-03-02T11:57:31.039Z,37.20
2019-03-02T11:59:51.942Z,38.53
2019-03-02T12:02:00.351Z,34.07
2019-03-02T12:04:14.926Z,33.53
2019-03-02T12:06:37.888Z,27.90
2019-03-02T12:08:57.934Z,28.23
2019-03-02T12:11:10.088Z,28.97
2019-03-02T12:13:23.352Z,28.17
2019-03-02T12:15:28.895Z,25.53
2019-03-02T12:17:41.005Z,30.47
2019-03-02T12:19:47.463Z,26.97
2019-03-02T12:21:54.080Z,29.33
2019-03-02T12:24:22.372Z,31.07
2019-03-02T12:26:38.362Z,28.70
2019-03-02T12:28:43.836Z,32.63
2019-03-02T12:30:49.258Z,33.87
2019-03-02T12:33:00.570Z,26.80
2019-03-02T12:35:07.546Z,29.00
2019-03-02T12:37:28.526Z,22.43
2019-03-02T12:39:49.983Z,23.93
2019-03-02T12:41:56.274Z,21.50
2019-03-02T12:44:01.782Z,23.20
2019-03-02T12:46:23.520Z,18.33
2019-03-02T12:48:34.867Z,21.13
2019-03-02T12:50:43.178Z,18.73
2019-03-02T12:52:57.734Z,19.57
2019-03-02T12:55:03.284Z,16.57
2019-03-02T12:57:09.642Z,21.97
2019-03-02T12:59:21.326Z,16.77
2019-03-02T13:01:43.086Z,17.87
2019-03-02T13:03:53.850Z,20.17
2019-03-02T13:06:10.973Z,20.23
2019-03-02T13:08:35.071Z,18.90
2019-03-02T13:10:58.591Z,16.90
2019-03-02T13:13:03.750Z,13.23
2019-03-02T13:15:12.776Z,16.93
2019-03-02T13:17:37.142Z,17.37
2019-03-02T13:19:44.406Z,14.83
2019-03-02T13:22:06.228Z,18.70
2019-03-02T13:24:14.815Z,20.17
2019-03-02T13:26:21.630Z,18.80
2019-03-02T13:28:27.060Z,18.73
2019-03-02T13:30:41.734Z,17.13
2019-03-02T13:32:56.971Z,14.60
2019-03-02T13:35:02.571Z,17.23
2019-03-02T13:37:16.968Z,21.57
2019-03-02T13:39:23.359Z,17.80
2019-03-02T13:41:34.428Z,17.30
2019-03-02T13:43:45.078Z,13.57
2019-03-02T13:45:59.361Z,17.30
2019-03-02T13:48:03.848Z,16.93
2019-03-02T13:50:10.042Z,16.37
2019-03-02T13:52:22.414Z,20.07
2019-03-02T13:54:27.616Z,14.00
2019-03-02T13:56:51.128Z,19.20
2019-03-02T13:58:58.904Z,14.80
2019-03-02T14:01:06.659Z,16.23
2019-03-02T14:03:28.368Z,20.63
2019-03-02T14:05:50.066Z,15.20
2019-03-02T14:08:08.344Z,14.50
2019-03-02T14:10:20.486Z,19.03
2019-03-02T14:12:26.980Z,14.00
2019-03-02T14:14:41.089Z,20.40
2019-03-02T14:17:03.700Z,19.20
2019-03-02T14:19:12.174Z,14.90
2019-03-02T14:21:17.705Z,16.97
2019-03-02T14:23:32.193Z,12.60
2019-03-02T14:25:51.228Z,19.70
2019-03-02T14:28:02.197Z,15.73
2019-03-02T14:30:12.348Z,14.43
2019-03-02T14:32:20.752Z,17.07
2019-03-02T14:34:26.332Z,13.00
2019-03-02T14:36:34.860Z,21.80
2019-03-02T14:38:42.019Z,21.83
2019-03-02T14:41:04.980Z,19.93
2019-03-02T14:43:22.110Z,15.17
2019-03-02T14:45:27.608Z,14.37
2019-03-02T14:47:44.838Z,16.20
2019-03-02T14:50:08.137Z,14.60
2019-03-02T14:52:16.391Z,17.37
2019-03-02T14:54:31.148Z,16.37
2019-03-02T14:56:39.367Z,15.57
2019-03-02T14:58:44.908Z,14.83
2019-03-02T15:01:06.516Z,17.53
2019-03-02T15:03:14.728Z,15.43
2019-03-02T15:05:28.930Z,15.17
2019-03-02T15:07:42.940Z,17.97
2019-03-02T15:10:03.092Z,15.40
2019-03-02T15:12:08.551Z,12.70
2019-03-02T15:14:14.104Z,13.93
2019-03-02T15:16:25.474Z,19.13
2019-03-02T15:18:42.853Z,16.93
2019-03-02T15:20:48.440Z,12.20
2019-03-02T15:23:00.418Z,13.43
2019-03-02T15:25:26.122Z,15.77
2019-03-02T15:27:35.440Z,14.60
2019-03-02T15:29:40.942Z,15.13
2019-03-02T15:31:55.486Z,15.73
2019-03-02T15:34:01.037Z,15.00
2019-03-02T15:36:10.982Z,14.07
2019-03-02T15:38:17.547Z,13.70
2019-03-02T15:40:28.802Z,15.23
2019-03-02T15:42:35.368Z,13.90
2019-03-02T15:44:47.526Z,18.03
2019-03-02T15:47:00.505Z,20.93
2019-03-02T15:49:22.635Z,16.83
2019-03-02T15:51:32.224Z,17.07
2019-03-02T15:53:56.369Z,15.80
2019-03-02T15:56:02.593Z,14.07
2019-03-02T15:58:24.626Z,14.40
2019-03-02T16:00:50.740Z,14.13
2019-03-02T16:03:08.698Z,12.80
2019-03-02T16:05:19.881Z,14.70
2019-03-02T16:07:25.415Z,11.43
2019-03-02T16:09:43.056Z,16.03
2019-03-02T16:11:51.247Z,18.67
2019-03-02T16:14:02.525Z,14.90
2019-03-02T16:16:08.091Z,12.50
2019-03-02T16:18:30.025Z,11.53
2019-03-02T16:20:38.957Z,15.70
2019-03-02T16:22:43.551Z,13.38
2019-03-02T16:24:49.085Z,16.03
2019-03-02T16:26:56.048Z,15.43
2019-03-02T16:29:01.479Z,14.53
2019-03-02T16:31:26.621Z,17.10
2019-03-02T16:33:34.193Z,9.40
2019-03-02T16:36:03.433Z,16.00
2019-03-02T16:38:07.549Z,16.20
2019-03-02T16:40:21.327Z,18.13
2019-03-02T16:42:34.815Z,14.78
2019-03-02T16:44:40.746Z,20.02
2019-03-02T16:46:52.525Z,18.42
2019-03-02T16:49:00.989Z,16.47
2019-03-02T16:51:17.471Z,16.80
2019-03-02T16:53:25.940Z,13.43
2019-03-02T16:55:31.793Z,13.88
2019-03-02T16:57:53.735Z,12.93
2019-03-02T17:00:05.277Z,11.23
2019-03-02T17:02:25.675Z,12.43
2019-03-02T17:04:51.347Z,14.70
2019-03-02T17:06:57.174Z,10.67
2019-03-02T17:09:02.413Z,11.73
2019-03-02T17:11:08.314Z,10.67
2019-03-02T17:13:16.659Z,7.63
2019-03-02T17:15:38.113Z,6.90
2019-03-02T17:18:00.144Z,8.95
2019-03-02T17:20:21.335Z,6.92
2019-03-02T17:22:39.273Z,7.80
2019-03-02T17:24:50.855Z,4.47
2019-03-02T17:27:12.875Z,5.53
2019-03-02T17:29:24.267Z,7.47
2019-03-02T17:31:30.107Z,7.50
2019-03-02T17:33:35.866Z,6.50
2019-03-02T17:35:50.335Z,6.97
2019-03-02T17:38:02.084Z,8.55
2019-03-02T17:40:26.391Z,6.50
2019-03-02T17:42:50.155Z,9.28
2019-03-02T17:45:01.547Z,7.50
2019-03-02T17:47:26.578Z,7.15
2019-03-02T17:49:46.059Z,6.78
2019-03-02T17:52:00.564Z,8.35
2019-03-02T17:54:15.519Z,9.20
2019-03-02T17:56:29.983Z,6.33
2019-03-02T17:58:44.531Z,11.15
2019-03-02T18:00:57.023Z,8.85
2019-03-02T18:03:03.499Z,7.55
2019-03-02T18:05:27.122Z,7.80
2019-03-02T18:07:38.285Z,7.00
2019-03-02T18:10:02.901Z,10.10
2019-03-02T18:12:10.991Z,7.62
2019-03-02T18:14:20.185Z,8.70
2019-03-02T18:16:24.251Z,7.35
2019-03-02T18:18:31.931Z,8.58
2019-03-02T18:20:34.067Z,9.18
2019-03-02T18:22:38.239Z,7.65
2019-03-02T18:24:42.457Z,7.65
2019-03-02T18:26:46.589Z,8.63
2019-03-02T18:28:54.082Z,8.33
2019-03-02T18:30:57.476Z,8.03
2019-03-02T18:33:03.413Z,7.55
2019-03-02T18:35:07.643Z,7.90
2019-03-02T18:37:11.833Z,8.35
2019-03-02T18:39:15.997Z,8.80
2019-03-02T18:41:20.157Z,10.32
2019-03-02T18:43:24.374Z,9.33
2019-03-02T18:45:28.588Z,12.13
2019-03-02T18:47:32.420Z,8.28
2019-03-02T18:49:51.094Z,8.08
2019-03-02T18:51:54.426Z,9.98
2019-03-02T18:54:13.690Z,10.63
2019-03-02T18:56:17.913Z,11.45
2019-03-02T18:58:24.008Z,10.95
2019-03-02T19:00:29.717Z,9.88
2019-03-02T19:02:33.526Z,9.38
2019-03-02T19:04:38.623Z,10.35
2019-03-02T19:06:42.769Z,8.95
2019-03-02T19:08:47.216Z,9.85
2019-03-02T19:10:57.178Z,9.45
2019-03-02T19:13:05.051Z,9.33
2019-03-02T19:15:14.003Z,9.85
2019-03-02T19:17:18.162Z,10.50
2019-03-02T19:19:22.377Z,12.35
2019-03-02T19:21:26.582Z,12.80
2019-03-02T19:23:30.700Z,11.57
2019-03-02T19:25:34.566Z,12.05
2019-03-02T19:27:38.706Z,12.33
2019-03-02T19:29:42.922Z,12.30
2019-03-02T19:31:46.773Z,12.55
2019-03-02T19:33:50.941Z,10.82
2019-03-02T19:35:55.167Z,12.18
2019-03-02T19:37:59.366Z,13.15
2019-03-02T19:40:03.499Z,11.50
2019-03-02T19:42:07.684Z,13.55
2019-03-02T19:44:14.442Z,12.50
2019-03-02T19:46:18.308Z,12.13
2019-03-02T19:48:22.472Z,11.48
2019-03-02T19:50:27.003Z,13.25
2019-03-02T19:52:31.227Z,11.50
2019-03-02T19:54:35.428Z,11.75
2019-03-02T19:56:39.528Z,11.20
2019-03-02T19:58:43.742Z,11.48
2019-03-02T20:00:47.964Z,11.73
2019-03-02T20:02:52.062Z,12.10
2019-03-02T20:04:55.928Z,13.53
2019-03-02T20:06:59.736Z,13.93
2019-03-02T20:09:05.356Z,11.83
2019-03-02T20:11:09.540Z,12.65
2019-03-02T20:13:13.405Z,13.83
2019-03-02T20:15:28.071Z,13.60
2019-03-02T20:17:32.204Z,14.15
2019-03-02T20:19:36.522Z,15.18
2019-03-02T20:21:40.740Z,13.22
2019-03-02T20:23:47.628Z,14.15
2019-03-02T20:25:51.824Z,20.17
2019-03-02T20:27:55.976Z,17.25
2019-03-02T20:29:59.840Z,19.42
2019-03-02T20:32:04.047Z,18.30
2019-03-02T20:34:08.256Z,18.50
2019-03-02T20:36:12.128Z,20.30
2019-03-02T20:38:19.512Z,21.12
2019-03-02T20:40:25.299Z,20.12
2019-03-02T20:42:29.136Z,18.75
2019-03-02T20:44:34.621Z,19.62
2019-03-02T20:46:38.810Z,23.50
2019-03-02T20:48:43.426Z,22.07
2019-03-02T20:50:47.248Z,19.23
2019-03-02T20:52:51.505Z,18.73
2019-03-02T20:54:56.850Z,18.95
2019-03-02T20:57:01.064Z,20.43
2019-03-02T20:59:05.304Z,20.40
2019-03-02T21:01:09.497Z,16.77
2019-03-02T21:03:13.704Z,20.20
2019-03-02T21:05:17.905Z,18.67
2019-03-02T21:07:22.108Z,21.87
2019-03-02T21:09:26.332Z,21.68
2019-03-02T21:11:30.166Z,16.70
2019-03-02T21:13:34.007Z,21.02
2019-03-02T21:15:43.675Z,19.82
2019-03-02T21:17:47.893Z,22.13
2019-03-02T21:19:51.768Z,20.72
2019-03-02T21:21:56.097Z,23.42
2019-03-02T21:24:01.732Z,20.45
2019-03-02T21:26:06.224Z,17.98
2019-03-02T21:28:10.187Z,24.80
2019-03-02T21:30:18.843Z,21.87
2019-03-02T21:32:22.676Z,24.63
2019-03-02T21:34:28.662Z,18.37
2019-03-02T21:36:32.539Z,19.30
2019-03-02T21:38:36.368Z,23.42
2019-03-02T21:40:41.503Z,20.97
2019-03-02T21:42:45.620Z,18.67
2019-03-02T21:44:49.226Z,22.43
2019-03-02T21:46:52.904Z,20.50
2019-03-02T21:48:57.016Z,23.55
2019-03-02T21:51:04.932Z,19.17
2019-03-02T21:53:09.121Z,21.57
2019-03-02T21:55:13.216Z,20.92
2019-03-02T21:57:17.361Z,17.85
2019-03-02T21:59:21.488Z,20.30
2019-03-02T22:01:25.294Z,20.45
2019-03-02T22:03:29.163Z,22.00
2019-03-02T22:05:32.994Z,21.68
2019-03-02T22:07:37.280Z,23.52
2019-03-02T22:09:41.394Z,23.40
2019-03-02T22:11:45.229Z,19.85
2019-03-02T22:13:49.422Z,21.70
2019-03-02T22:15:53.534Z,21.10
2019-03-02T22:17:57.938Z,22.25
2019-03-02T22:20:01.520Z,20.50
2019-03-02T22:22:05.652Z,19.37
2019-03-02T22:24:11.002Z,20.73
2019-03-02T22:26:14.844Z,18.82
2019-03-02T22:28:18.702Z,19.33
2019-03-02T22:30:27.574Z,19.15
2019-03-02T22:32:31.410Z,21.80
2019-03-02T22:34:35.243Z,21.87
2019-03-02T22:36:39.436Z,19.45
2019-03-02T22:38:43.561Z,22.17
2019-03-02T22:40:47.387Z,19.25
2019-03-02T22:42:51.573Z,23.20
2019-03-02T22:44:55.776Z,19.87
2019-03-02T22:46:59.981Z,21.25
2019-03-02T22:49:03.887Z,19.37
2019-03-02T22:51:07.721Z,21.25
2019-03-02T22:53:11.909Z,21.27
2019-03-02T22:55:16.836Z,17.07
2019-03-02T22:57:20.966Z,19.02
2019-03-02T22:59:24.828Z,17.45
2019-03-02T23:01:34.618Z,20.40
2019-03-02T23:03:37.680Z,19.87
2019-03-02T23:05:41.897Z,19.62
2019-03-02T23:07:46.604Z,17.37
2019-03-02T23:09:51.556Z,14.00
2019-03-02T23:11:55.770Z,18.85
2019-03-02T23:14:00.076Z,21.17
2019-03-02T23:16:07.177Z,21.55
2019-03-02T23:18:11.378Z,18.15
2019-03-02T23:20:15.240Z,19.55
2019-03-02T23:22:19.385Z,17.70
2019-03-02T23:24:23.319Z,19.67
2019-03-02T23:26:27.507Z,16.23
2019-03-02T23:28:31.728Z,13.68
2019-03-02T23:30:35.955Z,20.35
2019-03-02T23:32:40.131Z,17.02
2019-03-02T23:34:43.971Z,18.20
2019-03-02T23:36:48.173Z,15.93
2019-03-02T23:38:52.010Z,15.83
2019-03-02T23:40:56.173Z,17.65
2019-03-02T23:43:00.787Z,18.02
2019-03-02T23:45:07.361Z,18.27
2019-03-02T23:47:11.587Z,16.65
2019-03-02T23:49:15.787Z,19.75
2019-03-02T23:51:19.995Z,13.72
2019-03-02T23:53:24.101Z,15.25
2019-03-02T23:55:28.315Z,19.12
2019-03-02T23:57:32.635Z,15.43
2019-03-02T23:59:39.507Z,15.72
